createdAt,value
2017-06-20T00:01:25.221Z,70.10
2017-06-20T00:03:52.786Z,70.20
2017-06-20T00:06:21.105Z,70.30
2017-06-20T00:08:48.694Z,70.20
2017-06-20T00:11:16.262Z,70.50
2017-06-20T00:13:44.607Z,71.10
2017-06-20T00:16:12.190Z,71.00
2017-06-20T00:18:39.761Z,71.00
2017-06-20T00:21:07.362Z,71.10
2017-06-20T00:23:34.929Z,71.20
2017-06-20T00:26:02.487Z,71.30
2017-06-20T00:28:30.098Z,71.00
2017-06-20T00:30:57.654Z,70.90
2017-06-20T00:33:25.231Z,71.20
2017-06-20T00:35:52.810Z,71.30
2017-06-20T00:38:20.383Z,71.10
2017-06-20T00:40:47.978Z,71.30
2017-06-20T00:43:15.550Z,71.40
2017-06-20T00:45:43.159Z,71.00
2017-06-20T00:48:10.734Z,71.10
2017-06-20T00:50:38.317Z,71.40
2017-06-20T00:53:05.978Z,71.50
2017-06-20T00:55:33.566Z,71.80
2017-06-20T00:58:01.146Z,71.80
2017-06-20T01:00:29.485Z,71.80
2017-06-20T01:02:57.057Z,71.60
2017-06-20T01:05:24.658Z,72.30
2017-06-20T01:07:52.259Z,71.90
2017-06-20T01:10:19.809Z,72.50
2017-06-20T01:12:47.394Z,72.40
2017-06-20T01:15:15.002Z,72.50
2017-06-20T01:17:42.609Z,72.30
2017-06-20T01:20:10.179Z,72.80
2017-06-20T01:22:37.752Z,72.90
2017-06-20T01:25:05.310Z,73.10
2017-06-20T01:27:32.898Z,73.00
2017-06-20T01:30:01.265Z,73.50
2017-06-20T01:32:28.899Z,73.40
2017-06-20T01:34:56.478Z,73.70
2017-06-20T01:37:24.056Z,73.60
2017-06-20T01:39:51.648Z,73.50
2017-06-20T01:42:19.209Z,73.80
2017-06-20T01:44:46.778Z,74.20
2017-06-20T01:47:14.366Z,74.30
2017-06-20T01:49:41.925Z,74.70
2017-06-20T01:52:09.496Z,74.90
2017-06-20T01:54:37.086Z,75.20
2017-06-20T01:57:04.754Z,75.30
2017-06-20T01:59:32.345Z,75.30
2017-06-20T02:01:59.898Z,75.40
2017-06-20T02:04:27.502Z,75.10
2017-06-20T02:06:55.062Z,75.40
2017-06-20T02:09:22.621Z,75.30
2017-06-20T02:11:50.295Z,75.20
2017-06-20T02:14:17.875Z,75.60
2017-06-20T02:16:45.467Z,75.70
2017-06-20T02:19:13.054Z,75.70
2017-06-20T02:21:41.527Z,75.80
2017-06-20T02:24:09.093Z,75.90
2017-06-20T02:26:36.657Z,76.00
2017-06-20T02:29:04.241Z,76.50
2017-06-20T02:31:31.805Z,77.10
2017-06-20T02:34:00.165Z,76.00
2017-06-20T02:36:27.754Z,76.60
2017-06-20T02:38:55.313Z,76.50
2017-06-20T02:41:22.904Z,77.00
2017-06-20T02:43:50.494Z,77.10
2017-06-20T02:46:18.065Z,77.30
2017-06-20T02:48:45.685Z,77.40
2017-06-20T02:51:14.058Z,77.90
2017-06-20T02:53:42.397Z,78.60
2017-06-20T02:56:10.003Z,77.50
2017-06-20T02:58:37.567Z,77.10
2017-06-20T03:01:05.149Z,77.20
2017-06-20T03:03:32.764Z,76.60
2017-06-20T03:06:00.330Z,76.40
2017-06-20T03:08:27.887Z,76.70
2017-06-20T03:11:07.269Z,75.70
2017-06-20T03:13:34.841Z,76.00
2017-06-20T03:16:02.401Z,76.30
2017-06-20T03:18:30.025Z,76.50
2017-06-20T03:20:58.358Z,77.10
2017-06-20T03:23:25.930Z,77.10
2017-06-20T03:25:53.523Z,77.00
2017-06-20T03:28:21.853Z,76.90
2017-06-20T03:30:49.430Z,76.80
2017-06-20T03:33:17.019Z,76.60
2017-06-20T03:35:44.582Z,76.40
2017-06-20T03:38:12.158Z,76.10
2017-06-20T03:40:39.731Z,76.30
2017-06-20T03:43:07.326Z,75.90
2017-06-20T03:45:34.897Z,75.50
2017-06-20T03:48:02.483Z,75.40
2017-06-20T03:50:30.072Z,74.20
2017-06-20T03:52:57.632Z,73.80
2017-06-20T03:55:25.230Z,73.70
2017-06-20T03:57:52.848Z,73.00
2017-06-20T04:00:21.178Z,72.80
2017-06-20T04:02:48.757Z,72.70
2017-06-20T04:05:16.326Z,72.50
2017-06-20T04:07:43.953Z,72.40
2017-06-20T04:10:11.530Z,71.70
2017-06-20T04:12:39.121Z,71.40
2017-06-20T04:15:07.478Z,70.40
2017-06-20T04:17:35.120Z,70.30
2017-06-20T04:20:02.689Z,68.90
2017-06-20T04:22:30.293Z,66.80
2017-06-20T04:24:57.904Z,64.80
2017-06-20T04:27:25.511Z,63.70
2017-06-20T04:29:53.081Z,62.50
2017-06-20T04:32:21.507Z,58.50
2017-06-20T04:34:49.105Z,58.50
2017-06-20T04:37:17.447Z,55.00
2017-06-20T04:39:45.033Z,54.80
2017-06-20T04:42:12.593Z,53.60
2017-06-20T04:44:40.198Z,52.00
2017-06-20T04:47:07.769Z,50.60
2017-06-20T04:49:35.337Z,48.30
2017-06-20T04:52:02.934Z,47.90
2017-06-20T04:54:30.489Z,47.10
2017-06-20T04:56:58.098Z,46.20
2017-06-20T04:59:25.666Z,44.40
2017-06-20T05:01:53.241Z,44.10
2017-06-20T05:04:20.842Z,42.60
2017-06-20T05:06:48.491Z,41.90
2017-06-20T05:09:16.075Z,40.90
2017-06-20T05:11:43.646Z,38.90
2017-06-20T05:14:12.063Z,37.30
2017-06-20T05:16:39.663Z,37.30
2017-06-20T05:19:07.225Z,38.40
2017-06-20T05:21:34.818Z,37.70
2017-06-20T05:24:03.175Z,37.60
2017-06-20T05:26:30.742Z,37.70
2017-06-20T05:28:58.407Z,36.80
2017-06-20T05:31:25.973Z,36.80
2017-06-20T05:33:53.530Z,35.50
2017-06-20T05:36:21.122Z,36.10
2017-06-20T05:38:48.718Z,35.10
2017-06-20T05:41:16.302Z,34.50
2017-06-20T05:43:43.856Z,34.60
2017-06-20T05:46:11.446Z,34.20
2017-06-20T05:48:39.791Z,33.30
2017-06-20T05:51:07.349Z,33.30
2017-06-20T05:53:34.937Z,33.20
2017-06-20T05:56:03.326Z,31.90
2017-06-20T05:58:31.682Z,32.10
2017-06-20T06:00:59.269Z,32.00
2017-06-20T06:03:27.588Z,29.60
2017-06-20T06:05:55.162Z,29.50
2017-06-20T06:08:22.817Z,30.00
2017-06-20T06:10:50.380Z,29.50
2017-06-20T06:13:17.983Z,29.20
2017-06-20T06:15:45.584Z,28.40
2017-06-20T06:18:13.158Z,28.70
2017-06-20T06:20:40.758Z,27.60
2017-06-20T06:23:08.314Z,26.80
2017-06-20T06:25:35.926Z,28.10
2017-06-20T06:28:03.492Z,26.60
2017-06-20T06:30:31.093Z,26.10
2017-06-20T06:32:58.658Z,25.40
2017-06-20T06:35:26.259Z,25.30
2017-06-20T06:37:53.840Z,25.80
2017-06-20T06:40:21.443Z,25.30
2017-06-20T06:42:49.046Z,23.30
2017-06-20T06:45:16.720Z,23.60
2017-06-20T06:47:44.294Z,22.70
2017-06-20T06:50:11.885Z,23.20
2017-06-20T06:52:39.472Z,23.40
2017-06-20T06:55:07.058Z,23.30
2017-06-20T06:57:34.640Z,23.50
2017-06-20T07:00:02.223Z,23.90
2017-06-20T07:02:29.825Z,22.90
2017-06-20T07:04:58.154Z,22.90
2017-06-20T07:07:25.734Z,22.90
2017-06-20T07:09:53.320Z,22.50
2017-06-20T07:12:21.657Z,22.50
2017-06-20T07:14:49.206Z,22.40
2017-06-20T07:17:16.803Z,22.40
2017-06-20T07:19:44.365Z,22.80
2017-06-20T07:22:11.970Z,21.90
2017-06-20T07:24:39.543Z,22.40
2017-06-20T07:27:07.102Z,24.40
2017-06-20T07:29:34.694Z,23.00
2017-06-20T07:32:02.266Z,22.50
2017-06-20T07:34:29.866Z,22.90
2017-06-20T07:36:57.494Z,22.40
2017-06-20T07:39:25.076Z,22.40
2017-06-20T07:41:53.407Z,22.50
2017-06-20T07:44:21.002Z,22.50
2017-06-20T07:46:49.346Z,23.90
2017-06-20T07:49:16.926Z,23.80
2017-06-20T07:51:44.519Z,21.90
2017-06-20T07:54:12.885Z,22.60
2017-06-20T07:56:41.218Z,22.70
2017-06-20T07:59:08.809Z,22.50
2017-06-20T08:01:36.379Z,22.20
2017-06-20T08:04:03.987Z,22.00
2017-06-20T08:06:31.556Z,22.20
2017-06-20T08:08:59.118Z,21.30
2017-06-20T08:11:26.801Z,22.50
2017-06-20T08:13:54.368Z,21.10
2017-06-20T08:16:21.941Z,21.80
2017-06-20T08:18:49.534Z,21.80
2017-06-20T08:21:37.906Z,21.60
2017-06-20T08:24:05.477Z,22.00
2017-06-20T08:26:33.084Z,23.10
2017-06-20T08:29:01.427Z,24.50
2017-06-20T08:31:29.005Z,24.40
2017-06-20T08:33:56.606Z,24.20
2017-06-20T08:36:24.163Z,23.60
2017-06-20T08:38:51.736Z,25.50
2017-06-20T08:41:19.318Z,24.20
2017-06-20T08:43:46.878Z,24.10
2017-06-20T08:46:14.453Z,23.60
2017-06-20T08:48:42.125Z,25.00
2017-06-20T08:51:09.710Z,24.30
2017-06-20T08:53:37.325Z,24.70
2017-06-20T08:56:04.914Z,23.70
2017-06-20T08:58:32.515Z,24.70
2017-06-20T09:01:00.125Z,24.40
2017-06-20T09:03:27.687Z,24.60
2017-06-20T09:05:55.250Z,24.10
2017-06-20T09:08:22.826Z,24.10
2017-06-20T09:10:50.443Z,25.00
2017-06-20T09:13:18.015Z,23.80
2017-06-20T09:15:45.655Z,23.10
2017-06-20T09:18:13.286Z,24.50
2017-06-20T09:20:40.966Z,24.70
2017-06-20T09:23:09.353Z,24.90
2017-06-20T09:25:36.923Z,24.80
2017-06-20T09:28:04.500Z,26.70
2017-06-20T09:30:32.079Z,26.70
2017-06-20T09:32:59.639Z,25.60
2017-06-20T09:35:27.227Z,26.00
2017-06-20T09:37:54.990Z,25.20
2017-06-20T09:40:22.595Z,25.90
2017-06-20T09:42:50.192Z,27.90
2017-06-20T09:45:17.749Z,27.40
2017-06-20T09:47:45.322Z,28.10
2017-06-20T09:50:12.931Z,28.20
2017-06-20T09:52:41.251Z,30.10
2017-06-20T09:55:08.818Z,30.10
2017-06-20T09:57:36.466Z,30.70
2017-06-20T10:00:04.033Z,28.50
2017-06-20T10:02:31.634Z,30.70
2017-06-20T10:04:59.215Z,29.70
2017-06-20T10:07:27.636Z,28.80
2017-06-20T10:09:55.214Z,28.70
2017-06-20T10:12:22.799Z,28.40
2017-06-20T10:14:50.407Z,26.90
2017-06-20T10:17:17.979Z,27.10
2017-06-20T10:19:45.539Z,26.60
2017-06-20T10:22:13.128Z,26.40
2017-06-20T10:24:40.700Z,26.70
2017-06-20T10:27:08.291Z,26.80
2017-06-20T10:29:35.923Z,27.90
2017-06-20T10:32:03.518Z,27.00
2017-06-20T10:34:31.090Z,29.00
2017-06-20T10:36:58.680Z,29.30
2017-06-20T10:39:26.250Z,27.30
2017-06-20T10:41:53.862Z,27.20
2017-06-20T10:44:21.466Z,25.70
2017-06-20T10:46:49.030Z,26.70
2017-06-20T10:49:16.621Z,28.40
2017-06-20T10:51:44.238Z,29.20
2017-06-20T10:54:11.834Z,30.00
2017-06-20T10:56:39.401Z,30.60
2017-06-20T10:59:07.758Z,31.20
2017-06-20T11:01:35.362Z,31.50
2017-06-20T11:04:02.944Z,32.70
2017-06-20T11:06:30.522Z,33.10
2017-06-20T11:08:58.098Z,30.60
2017-06-20T11:11:25.682Z,32.30
2017-06-20T11:13:53.284Z,31.90
2017-06-20T11:16:20.886Z,28.60
2017-06-20T11:18:48.468Z,30.80
2017-06-20T11:21:16.084Z,32.40
2017-06-20T11:23:43.675Z,30.50
2017-06-20T11:26:11.255Z,31.10
2017-06-20T11:28:38.863Z,31.90
2017-06-20T11:31:06.438Z,32.50
2017-06-20T11:33:34.018Z,32.50
2017-06-20T11:36:01.598Z,31.80
2017-06-20T11:38:29.961Z,32.20
2017-06-20T11:40:57.554Z,32.40
2017-06-20T11:43:25.177Z,34.00
2017-06-20T11:45:52.750Z,34.50
2017-06-20T11:48:20.367Z,34.60
2017-06-20T11:50:47.973Z,33.40
2017-06-20T11:53:15.534Z,36.50
2017-06-20T11:55:43.138Z,35.30
2017-06-20T11:58:10.723Z,33.00
2017-06-20T12:00:38.431Z,33.50
2017-06-20T12:03:05.999Z,32.60
2017-06-20T12:05:33.599Z,34.00
2017-06-20T12:08:01.187Z,34.50
2017-06-20T12:10:28.775Z,32.60
2017-06-20T12:12:56.357Z,33.30
2017-06-20T12:15:24.692Z,32.20
2017-06-20T12:17:52.350Z,32.20
2017-06-20T12:20:19.968Z,31.00
2017-06-20T12:22:47.527Z,30.40
2017-06-20T12:25:15.091Z,31.90
2017-06-20T12:27:42.674Z,33.30
2017-06-20T12:30:10.250Z,32.70
2017-06-20T12:32:37.824Z,32.80
2017-06-20T12:35:05.422Z,32.00
2017-06-20T12:37:33.764Z,33.20
2017-06-20T12:40:01.362Z,32.80
2017-06-20T12:42:29.699Z,33.80
2017-06-20T12:44:57.249Z,33.70
2017-06-20T12:47:24.852Z,33.50
2017-06-20T12:49:52.439Z,34.80
2017-06-20T12:52:20.055Z,33.20
2017-06-20T12:54:47.611Z,33.50
2017-06-20T12:57:15.199Z,33.70
2017-06-20T12:59:42.755Z,35.60
2017-06-20T13:02:10.335Z,33.50
2017-06-20T13:04:37.888Z,32.30
2017-06-20T13:07:05.463Z,34.60
2017-06-20T13:09:33.079Z,32.50
2017-06-20T13:12:00.653Z,35.00
2017-06-20T13:14:28.219Z,34.10
2017-06-20T13:16:55.811Z,34.20
2017-06-20T13:19:23.490Z,34.30
2017-06-20T13:21:51.054Z,33.50
2017-06-20T13:24:18.646Z,30.80
2017-06-20T13:26:46.207Z,31.20
2017-06-20T13:29:13.790Z,32.20
2017-06-20T13:31:41.366Z,34.20
2017-06-20T13:34:08.942Z,37.00
2017-06-20T13:36:36.577Z,32.50
2017-06-20T13:39:04.161Z,32.80
2017-06-20T13:41:32.480Z,35.00
2017-06-20T13:44:00.058Z,34.80
2017-06-20T13:46:27.651Z,34.40
2017-06-20T13:48:55.215Z,34.10
2017-06-20T13:51:23.543Z,37.40
2017-06-20T13:53:51.150Z,37.30
2017-06-20T13:56:19.533Z,34.10
2017-06-20T13:58:47.099Z,34.10
2017-06-20T14:01:14.685Z,33.80
2017-06-20T14:03:42.258Z,33.10
2017-06-20T14:06:09.825Z,33.40
2017-06-20T14:08:37.403Z,32.70
2017-06-20T14:11:04.958Z,33.70
2017-06-20T14:13:32.530Z,33.80
2017-06-20T14:16:00.104Z,34.20
2017-06-20T14:18:27.666Z,34.50
2017-06-20T14:20:55.254Z,35.60
2017-06-20T14:23:22.818Z,33.40
2017-06-20T14:25:50.400Z,33.80
2017-06-20T14:28:17.976Z,34.60
2017-06-20T14:30:45.603Z,33.50
2017-06-20T14:33:13.292Z,32.00
2017-06-20T14:35:40.847Z,33.10
2017-06-20T14:38:08.438Z,33.20
2017-06-20T14:40:36.024Z,33.80
2017-06-20T14:43:04.359Z,36.10
2017-06-20T14:45:31.933Z,35.50
2017-06-20T14:47:59.502Z,34.50
2017-06-20T14:50:27.105Z,37.00
2017-06-20T14:52:54.691Z,35.40
2017-06-20T14:55:22.250Z,37.30
2017-06-20T14:57:49.861Z,36.20
2017-06-20T15:00:17.420Z,38.50
2017-06-20T15:02:44.980Z,38.20
2017-06-20T15:05:12.594Z,39.10
2017-06-20T15:07:40.206Z,38.90
2017-06-20T15:10:07.766Z,38.90
2017-06-20T15:12:35.381Z,41.10
2017-06-20T15:15:02.976Z,41.80
2017-06-20T15:17:30.578Z,40.30
2017-06-20T15:19:58.954Z,40.40
2017-06-20T15:22:27.280Z,42.00
2017-06-20T15:24:54.950Z,42.00
2017-06-20T15:27:22.551Z,42.60
2017-06-20T15:29:50.882Z,43.40
2017-06-20T15:32:18.484Z,43.30
2017-06-20T15:34:46.983Z,43.10
2017-06-20T15:37:14.550Z,42.40
2017-06-20T15:39:42.133Z,43.00
2017-06-20T15:42:09.703Z,41.70
2017-06-20T15:44:37.282Z,43.20
2017-06-20T15:47:04.906Z,41.30
2017-06-20T15:49:32.542Z,42.80
2017-06-20T15:52:00.923Z,42.30
2017-06-20T15:54:29.286Z,43.10
2017-06-20T15:56:56.889Z,43.00
2017-06-20T15:59:24.573Z,43.60
2017-06-20T16:01:52.160Z,42.60
2017-06-20T16:04:19.745Z,42.80
2017-06-20T16:06:47.343Z,43.30
2017-06-20T16:09:14.934Z,43.50
2017-06-20T16:11:42.530Z,44.10
2017-06-20T16:14:10.952Z,44.10
2017-06-20T16:16:38.517Z,44.00
2017-06-20T16:19:06.079Z,44.40
2017-06-20T16:21:33.678Z,45.20
2017-06-20T16:24:01.285Z,44.90
2017-06-20T16:26:28.858Z,44.70
2017-06-20T16:28:56.450Z,44.00
2017-06-20T16:31:24.015Z,44.90
2017-06-20T16:33:51.609Z,44.10
2017-06-20T16:36:19.201Z,45.00
2017-06-20T16:38:46.908Z,44.50
2017-06-20T16:41:14.495Z,45.70
2017-06-20T16:43:42.219Z,44.80
2017-06-20T16:46:09.799Z,45.10
2017-06-20T16:48:37.393Z,45.00
2017-06-20T16:51:04.956Z,44.40
2017-06-20T16:53:32.544Z,45.00
2017-06-20T16:56:00.146Z,45.00
2017-06-20T16:58:27.721Z,45.60
2017-06-20T17:00:55.315Z,44.90
2017-06-20T17:03:22.900Z,45.00
2017-06-20T17:05:50.527Z,45.40
2017-06-20T17:08:18.077Z,45.50
2017-06-20T17:10:45.628Z,46.20
2017-06-20T17:13:13.963Z,45.90
2017-06-20T17:15:41.526Z,45.90
2017-06-20T17:18:09.113Z,47.30
2017-06-20T17:20:36.721Z,46.00
2017-06-20T17:23:04.283Z,45.60
2017-06-20T17:25:31.839Z,45.80
2017-06-20T17:27:59.418Z,45.80
2017-06-20T17:30:26.982Z,46.20
2017-06-20T17:32:54.571Z,45.90
2017-06-20T17:35:22.158Z,45.80
2017-06-20T17:37:50.503Z,46.10
2017-06-20T17:40:18.188Z,46.00
2017-06-20T17:42:45.816Z,46.40
2017-06-20T17:45:13.396Z,46.90
2017-06-20T17:47:41.029Z,47.40
2017-06-20T17:50:08.618Z,47.60
2017-06-20T17:52:36.187Z,47.80
2017-06-20T17:55:03.783Z,48.90
2017-06-20T17:57:31.359Z,48.30
2017-06-20T17:59:58.986Z,48.70
2017-06-20T18:02:27.331Z,49.80
2017-06-20T18:04:54.911Z,49.70
2017-06-20T18:07:22.507Z,50.40
2017-06-20T18:09:50.097Z,50.40
2017-06-20T18:12:17.674Z,50.90
2017-06-20T18:14:45.251Z,51.20
2017-06-20T18:17:12.842Z,51.10
2017-06-20T18:19:40.456Z,51.20
2017-06-20T18:22:08.033Z,51.60
2017-06-20T18:24:35.631Z,51.90
2017-06-20T18:27:03.214Z,51.70
2017-06-20T18:29:30.770Z,51.80
2017-06-20T18:31:58.399Z,52.50
2017-06-20T18:34:26.009Z,52.00
2017-06-20T18:36:53.602Z,52.00
2017-06-20T18:39:21.176Z,51.80
2017-06-20T18:41:48.802Z,51.70
2017-06-20T18:44:16.366Z,51.40
2017-06-20T18:46:43.964Z,51.70
2017-06-20T18:49:11.577Z,53.10
2017-06-20T18:51:39.167Z,52.10
2017-06-20T18:54:06.771Z,52.30
2017-06-20T18:56:34.341Z,53.00
2017-06-20T18:59:01.986Z,54.10
2017-06-20T19:01:29.524Z,54.50
2017-06-20T19:03:57.089Z,54.20
2017-06-20T19:06:24.747Z,54.60
2017-06-20T19:08:52.322Z,54.90
2017-06-20T19:11:19.887Z,55.00
2017-06-20T19:13:48.246Z,55.00
2017-06-20T19:16:15.846Z,54.90
2017-06-20T19:18:43.410Z,55.10
2017-06-20T19:21:10.974Z,54.80
2017-06-20T19:23:38.577Z,55.50
2017-06-20T19:26:06.179Z,55.40
2017-06-20T19:28:33.742Z,55.50
2017-06-20T19:31:02.139Z,55.70
2017-06-20T19:33:29.702Z,55.60
2017-06-20T19:35:57.251Z,55.80
2017-06-20T19:38:24.922Z,55.70
2017-06-20T19:40:52.534Z,56.10
2017-06-20T19:43:20.129Z,56.40
2017-06-20T19:45:47.687Z,56.30
2017-06-20T19:48:16.051Z,56.40
2017-06-20T19:50:43.609Z,56.40
2017-06-20T19:53:11.210Z,56.50
2017-06-20T19:55:38.824Z,56.70
2017-06-20T19:58:06.428Z,56.80
2017-06-20T20:00:34.076Z,57.30
2017-06-20T20:03:01.938Z,57.40
2017-06-20T20:05:30.265Z,56.60
2017-06-20T20:07:57.979Z,57.10
2017-06-20T20:10:25.570Z,57.30
2017-06-20T20:12:53.148Z,57.80
2017-06-20T20:15:20.727Z,58.00
2017-06-20T20:17:48.319Z,57.60
2017-06-20T20:20:15.862Z,58.20
2017-06-20T20:22:43.451Z,57.70
2017-06-20T20:25:11.050Z,58.30
2017-06-20T20:27:38.710Z,57.80
2017-06-20T20:30:06.371Z,57.10
2017-06-20T20:32:34.078Z,57.20
2017-06-20T20:35:01.650Z,57.50
2017-06-20T20:37:29.266Z,57.00
2017-06-20T20:39:56.851Z,57.00
2017-06-20T20:42:24.449Z,57.10
2017-06-20T20:44:52.057Z,57.60
2017-06-20T20:47:19.596Z,57.70
2017-06-20T20:49:47.171Z,57.30
2017-06-20T20:52:14.774Z,57.50
2017-06-20T20:54:42.336Z,57.20
2017-06-20T20:57:09.891Z,57.10
2017-06-20T20:59:37.507Z,57.00
2017-06-20T21:02:05.085Z,56.90
2017-06-20T21:04:32.714Z,56.90
2017-06-20T21:07:00.283Z,57.20
2017-06-20T21:09:27.910Z,57.70
2017-06-20T21:11:55.486Z,57.60
2017-06-20T21:14:23.831Z,58.40
2017-06-20T21:16:51.416Z,58.20
2017-06-20T21:19:18.989Z,58.20
2017-06-20T21:21:46.594Z,58.80
2017-06-20T21:24:14.194Z,58.70
2017-06-20T21:26:41.781Z,58.90
2017-06-20T21:29:09.346Z,59.60
2017-06-20T21:31:36.935Z,59.20
2017-06-20T21:34:04.546Z,59.40
2017-06-20T21:36:32.869Z,59.20
2017-06-20T21:39:00.541Z,59.40
2017-06-20T21:41:28.102Z,59.60
2017-06-20T21:43:55.683Z,59.80
2017-06-20T21:46:23.345Z,60.20
2017-06-20T21:48:50.902Z,59.70
2017-06-20T21:51:18.481Z,59.60
2017-06-20T21:53:46.060Z,59.30
2017-06-20T21:56:13.638Z,59.10
2017-06-20T21:58:41.216Z,59.10
2017-06-20T22:01:08.819Z,59.20
2017-06-20T22:03:36.402Z,59.40
2017-06-20T22:06:03.986Z,59.50
2017-06-20T22:08:31.654Z,59.70
2017-06-20T22:10:59.225Z,60.20
2017-06-20T22:13:26.800Z,60.10
2017-06-20T22:15:54.381Z,60.20
2017-06-20T22:18:21.998Z,60.30
2017-06-20T22:20:49.555Z,60.20
2017-06-20T22:23:17.110Z,60.10
2017-06-20T22:25:44.710Z,59.40
2017-06-20T22:28:12.378Z,58.60
2017-06-20T22:30:40.057Z,58.80
2017-06-20T22:33:07.614Z,58.80
2017-06-20T22:35:35.181Z,59.10
2017-06-20T22:38:02.761Z,59.10
2017-06-20T22:40:31.082Z,58.50
2017-06-20T22:42:58.674Z,58.40
2017-06-20T22:45:26.234Z,59.10
2017-06-20T22:47:53.798Z,59.20
2017-06-20T22:50:21.409Z,59.30
2017-06-20T22:52:48.968Z,59.10
2017-06-20T22:55:16.622Z,59.30
2017-06-20T22:57:44.210Z,59.10
2017-06-20T23:00:11.790Z,59.30
2017-06-20T23:02:39.340Z,59.30
2017-06-20T23:05:06.925Z,59.30
2017-06-20T23:07:34.504Z,59.80
2017-06-20T23:10:02.071Z,59.70
2017-06-20T23:12:30.392Z,59.70
2017-06-20T23:14:57.981Z,59.60
2017-06-20T23:17:25.617Z,59.90
2017-06-20T23:19:53.195Z,59.60
2017-06-20T23:22:20.794Z,59.50
2017-06-20T23:24:49.141Z,59.70
2017-06-20T23:27:16.742Z,59.60
2017-06-20T23:29:45.078Z,60.20
2017-06-20T23:32:12.615Z,60.20
2017-06-20T23:34:40.242Z,60.50
2017-06-20T23:37:08.584Z,61.00
2017-06-20T23:39:36.151Z,60.80
2017-06-20T23:42:03.734Z,61.20
2017-06-20T23:44:32.053Z,62.70
2017-06-20T23:46:59.606Z,61.70
2017-06-20T23:49:27.182Z,61.70
2017-06-20T23:51:54.750Z,61.40
2017-06-20T23:54:22.317Z,61.50
2017-06-20T23:56:49.882Z,61.30
2017-06-20T23:59:17.458Z,61.90
